sensor_id;sensor_type;location;lat;lon;timestamp;temperature;humidity
17797;DHT22;55596;53.554;9.916;2023-01-15T00:01:57;5.70;99.90
17797;DHT22;55596;53.554;9.916;2023-01-15T00:04:25;5.70;99.90
17797;DHT22;55596;53.554;9.916;2023-01-15T00:06:52;5.70;99.90
17797;DHT22;55596;53.554;9.916;2023-01-15T00:09:19;5.80;99.90
17797;DHT22;55596;53.554;9.916;2023-01-15T00:11:46;5.60;99.90
17797;DHT22;55596;53.554;9.916;2023-01-15T00:14:13;5.70;99.90
17797;DHT22;55596;53.554;9.916;2023-01-15T00:16:40;5.70;99.90
17797;DHT22;55596;53.554;9.916;2023-01-15T00:19:09;5.60;99.90
17797;DHT22;55596;53.554;9.916;2023-01-15T00:21:38;5.60;99.90
17797;DHT22;55596;53.554;9.916;2023-01-15T00:24:05;5.50;99.90
17797;DHT22;55596;53.554;9.916;2023-01-15T00:26:49;5.40;99.90
17797;DHT22;55596;53.554;9.916;2023-01-15T00:29:33;5.50;99.90
17797;DHT22;55596;53.554;9.916;2023-01-15T00:32:03;5.50;99.90
17797;DHT22;55596;53.554;9.916;2023-01-15T00:34:30;5.60;99.90
17797;DHT22;55596;53.554;9.916;2023-01-15T00:36:59;5.60;99.90
17797;DHT22;55596;53.554;9.916;2023-01-15T00:39:26;5.40;99.90
17797;DHT22;55596;53.554;9.916;2023-01-15T00:41:53;5.60;99.90
17797;DHT22;55596;53.554;9.916;2023-01-15T00:44:21;5.50;99.90
17797;DHT22;55596;53.554;9.916;2023-01-15T00:46:48;5.50;99.90
17797;DHT22;55596;53.554;9.916;2023-01-15T00:49:15;5.50;99.90
17797;DHT22;55596;53.554;9.916;2023-01-15T00:51:42;5.40;99.90
17797;DHT22;55596;53.554;9.916;2023-01-15T00:54:10;5.60;99.90
17797;DHT22;55596;53.554;9.916;2023-01-15T00:56:37;5.50;99.90
17797;DHT22;55596;53.554;9.916;2023-01-15T00:59:04;5.50;99.90
17797;DHT22;55596;53.554;9.916;2023-01-15T01:01:31;5.50;99.90
17797;DHT22;55596;53.554;9.916;2023-01-15T01:03:58;5.50;99.90
17797;DHT22;55596;53.554;9.916;2023-01-15T01:06:25;5.50;99.90
17797;DHT22;55596;53.554;9.916;2023-01-15T01:08:52;5.40;99.90
17797;DHT22;55596;53.554;9.916;2023-01-15T01:11:22;5.30;99.90
17797;DHT22;55596;53.554;9.916;2023-01-15T01:13:51;5.50;99.90
17797;DHT22;55596;53.554;9.916;2023-01-15T01:16:24;5.50;99.90
17797;DHT22;55596;53.554;9.916;2023-01-15T01:18:52;5.60;99.90
17797;DHT22;55596;53.554;9.916;2023-01-15T01:21:19;5.60;99.90
17797;DHT22;55596;53.554;9.916;2023-01-15T01:23:46;5.60;99.90
17797;DHT22;55596;53.554;9.916;2023-01-15T01:26:13;5.60;99.90
17797;DHT22;55596;53.554;9.916;2023-01-15T01:28:41;5.70;99.90
17797;DHT22;55596;53.554;9.916;2023-01-15T01:31:09;5.80;99.90
17797;DHT22;55596;53.554;9.916;2023-01-15T01:33:36;5.80;99.90
17797;DHT22;55596;53.554;9.916;2023-01-15T01:36:03;5.70;99.90
17797;DHT22;55596;53.554;9.916;2023-01-15T01:38:30;5.70;99.90
17797;DHT22;55596;53.554;9.916;2023-01-15T01:40:56;5.80;99.90
17797;DHT22;55596;53.554;9.916;2023-01-15T01:43:26;5.80;99.90
17797;DHT22;55596;53.554;9.916;2023-01-15T01:45:55;5.80;99.90
17797;DHT22;55596;53.554;9.916;2023-01-15T01:48:25;5.90;99.90
17797;DHT22;55596;53.554;9.916;2023-01-15T01:50:56;6.00;99.90
17797;DHT22;55596;53.554;9.916;2023-01-15T01:53:26;5.80;99.90
17797;DHT22;55596;53.554;9.916;2023-01-15T01:55:54;6.30;99.90
17797;DHT22;55596;53.554;9.916;2023-01-15T01:58:22;5.90;99.90
17797;DHT22;55596;53.554;9.916;2023-01-15T02:00:50;5.90;99.90
17797;DHT22;55596;53.554;9.916;2023-01-15T02:03:22;6.00;99.90
17797;DHT22;55596;53.554;9.916;2023-01-15T02:05:53;6.00;99.90
17797;DHT22;55596;53.554;9.916;2023-01-15T02:08:22;6.00;99.90
17797;DHT22;55596;53.554;9.916;2023-01-15T02:10:52;6.00;99.90
17797;DHT22;55596;53.554;9.916;2023-01-15T02:13:24;5.90;99.90
17797;DHT22;55596;53.554;9.916;2023-01-15T02:15:59;6.00;99.90
17797;DHT22;55596;53.554;9.916;2023-01-15T02:18:30;6.00;99.90
17797;DHT22;55596;53.554;9.916;2023-01-15T02:21:06;6.10;99.90
17797;DHT22;55596;53.554;9.916;2023-01-15T02:23:56;5.90;99.90
17797;DHT22;55596;53.554;9.916;2023-01-15T02:26:55;6.10;99.90
17797;DHT22;55596;53.554;9.916;2023-01-15T02:29:28;6.00;99.90
17797;DHT22;55596;53.554;9.916;2023-01-15T02:31:58;6.10;99.90
17797;DHT22;55596;53.554;9.916;2023-01-15T02:34:29;6.10;99.90
17797;DHT22;55596;53.554;9.916;2023-01-15T02:37:02;6.10;99.90
17797;DHT22;55596;53.554;9.916;2023-01-15T02:39:39;6.10;99.90
17797;DHT22;55596;53.554;9.916;2023-01-15T02:42:10;6.10;99.90
17797;DHT22;55596;53.554;9.916;2023-01-15T02:44:41;6.00;99.90
17797;DHT22;55596;53.554;9.916;2023-01-15T02:47:13;6.00;99.90
17797;DHT22;55596;53.554;9.916;2023-01-15T02:49:45;6.10;99.90
17797;DHT22;55596;53.554;9.916;2023-01-15T02:52:16;6.00;99.90
17797;DHT22;55596;53.554;9.916;2023-01-15T02:54:50;6.10;99.90
17797;DHT22;55596;53.554;9.916;2023-01-15T02:57:20;5.90;99.90
17797;DHT22;55596;53.554;9.916;2023-01-15T02:59:48;6.10;99.90
17797;DHT22;55596;53.554;9.916;2023-01-15T03:02:19;6.10;99.90
17797;DHT22;55596;53.554;9.916;2023-01-15T03:04:52;9.20;99.90
17797;DHT22;55596;53.554;9.916;2023-01-15T03:07:24;6.10;99.90
17797;DHT22;55596;53.554;9.916;2023-01-15T03:09:53;6.10;99.90
17797;DHT22;55596;53.554;9.916;2023-01-15T03:12:25;6.10;99.90
17797;DHT22;55596;53.554;9.916;2023-01-15T03:15:02;6.00;99.90
17797;DHT22;55596;53.554;9.916;2023-01-15T03:17:36;6.20;99.90
17797;DHT22;55596;53.554;9.916;2023-01-15T03:20:20;6.10;99.90
17797;DHT22;55596;53.554;9.916;2023-01-15T03:22:53;5.90;99.90
17797;DHT22;55596;53.554;9.916;2023-01-15T03:25:26;6.10;99.90
17797;DHT22;55596;53.554;9.916;2023-01-15T03:27:58;6.20;99.90
17797;DHT22;55596;53.554;9.916;2023-01-15T03:30:26;6.00;99.90
17797;DHT22;55596;53.554;9.916;2023-01-15T03:32:53;6.00;99.90
17797;DHT22;55596;53.554;9.916;2023-01-15T03:35:45;6.00;99.90
17797;DHT22;55596;53.554;9.916;2023-01-15T03:38:13;6.00;99.90
17797;DHT22;55596;53.554;9.916;2023-01-15T03:40:48;6.00;99.90
17797;DHT22;55596;53.554;9.916;2023-01-15T03:43:20;5.90;99.90
17797;DHT22;55596;53.554;9.916;2023-01-15T03:46:15;5.90;99.90
17797;DHT22;55596;53.554;9.916;2023-01-15T03:48:50;5.90;99.90
17797;DHT22;55596;53.554;9.916;2023-01-15T03:51:22;6.00;99.90
17797;DHT22;55596;53.554;9.916;2023-01-15T03:53:53;5.90;99.90
17797;DHT22;55596;53.554;9.916;2023-01-15T03:56:27;5.80;99.90
17797;DHT22;55596;53.554;9.916;2023-01-15T03:59:00;6.00;99.90
17797;DHT22;55596;53.554;9.916;2023-01-15T04:01:32;6.00;99.90
17797;DHT22;55596;53.554;9.916;2023-01-15T04:04:01;6.00;99.90
17797;DHT22;55596;53.554;9.916;2023-01-15T04:06:30;5.90;99.90
17797;DHT22;55596;53.554;9.916;2023-01-15T04:08:58;5.90;99.90
17797;DHT22;55596;53.554;9.916;2023-01-15T04:11:26;5.90;99.90
17797;DHT22;55596;53.554;9.916;2023-01-15T04:13:53;5.80;99.90
17797;DHT22;55596;53.554;9.916;2023-01-15T04:16:24;5.80;99.90
17797;DHT22;55596;53.554;9.916;2023-01-15T04:18:51;5.90;99.90
17797;DHT22;55596;53.554;9.916;2023-01-15T04:21:18;5.80;99.90
17797;DHT22;55596;53.554;9.916;2023-01-15T04:26:12;5.80;99.90
17797;DHT22;55596;53.554;9.916;2023-01-15T04:28:39;5.90;99.90
17797;DHT22;55596;53.554;9.916;2023-01-15T04:33:34;5.90;99.90
17797;DHT22;55596;53.554;9.916;2023-01-15T04:36:02;5.80;99.90
17797;DHT22;55596;53.554;9.916;2023-01-15T04:38:29;5.80;99.90
17797;DHT22;55596;53.554;9.916;2023-01-15T04:41:00;5.80;99.90
17797;DHT22;55596;53.554;9.916;2023-01-15T04:46:29;5.80;99.90
17797;DHT22;55596;53.554;9.916;2023-01-15T04:48:57;5.50;99.90
17797;DHT22;55596;53.554;9.916;2023-01-15T04:51:24;5.70;99.90
17797;DHT22;55596;53.554;9.916;2023-01-15T04:53:51;5.70;99.90
17797;DHT22;55596;53.554;9.916;2023-01-15T04:56:18;5.80;99.90
17797;DHT22;55596;53.554;9.916;2023-01-15T05:01:13;5.80;99.90
17797;DHT22;55596;53.554;9.916;2023-01-15T05:03:41;5.80;99.90
17797;DHT22;55596;53.554;9.916;2023-01-15T05:06:10;5.70;99.90
17797;DHT22;55596;53.554;9.916;2023-01-15T05:08:39;5.80;99.90
17797;DHT22;55596;53.554;9.916;2023-01-15T05:11:06;5.80;99.90
17797;DHT22;55596;53.554;9.916;2023-01-15T05:13:33;5.80;99.90
17797;DHT22;55596;53.554;9.916;2023-01-15T05:16:11;5.80;99.90
17797;DHT22;55596;53.554;9.916;2023-01-15T05:18:39;5.80;99.90
17797;DHT22;55596;53.554;9.916;2023-01-15T05:21:08;5.90;99.90
17797;DHT22;55596;53.554;9.916;2023-01-15T05:23:40;5.90;99.90
17797;DHT22;55596;53.554;9.916;2023-01-15T05:26:06;5.90;99.90
17797;DHT22;55596;53.554;9.916;2023-01-15T05:28:33;5.90;99.90
17797;DHT22;55596;53.554;9.916;2023-01-15T05:31:05;5.80;99.90
17797;DHT22;55596;53.554;9.916;2023-01-15T05:33:32;5.70;99.90
17797;DHT22;55596;53.554;9.916;2023-01-15T05:36:01;5.80;99.90
17797;DHT22;55596;53.554;9.916;2023-01-15T05:38:27;5.90;99.90
17797;DHT22;55596;53.554;9.916;2023-01-15T05:40:56;5.70;99.90
17797;DHT22;55596;53.554;9.916;2023-01-15T05:43:22;5.70;99.90
17797;DHT22;55596;53.554;9.916;2023-01-15T05:45:49;5.70;99.90
17797;DHT22;55596;53.554;9.916;2023-01-15T05:48:16;5.70;99.90
17797;DHT22;55596;53.554;9.916;2023-01-15T05:50:43;5.60;99.90
17797;DHT22;55596;53.554;9.916;2023-01-15T05:53:10;5.50;99.90
17797;DHT22;55596;53.554;9.916;2023-01-15T05:55:36;5.50;99.90
17797;DHT22;55596;53.554;9.916;2023-01-15T05:58:04;5.60;99.90
17797;DHT22;55596;53.554;9.916;2023-01-15T06:00:31;5.60;99.90
17797;DHT22;55596;53.554;9.916;2023-01-15T06:02:58;5.50;99.90
17797;DHT22;55596;53.554;9.916;2023-01-15T06:05:25;5.70;99.90
17797;DHT22;55596;53.554;9.916;2023-01-15T06:07:52;5.60;99.90
17797;DHT22;55596;53.554;9.916;2023-01-15T06:10:18;5.80;99.90
17797;DHT22;55596;53.554;9.916;2023-01-15T06:12:45;5.80;99.90
17797;DHT22;55596;53.554;9.916;2023-01-15T06:15:13;5.90;99.90
17797;DHT22;55596;53.554;9.916;2023-01-15T06:17:40;5.90;99.90
17797;DHT22;55596;53.554;9.916;2023-01-15T06:20:08;5.90;99.90
17797;DHT22;55596;53.554;9.916;2023-01-15T06:22:36;6.00;99.90
17797;DHT22;55596;53.554;9.916;2023-01-15T06:25:04;5.90;99.90
17797;DHT22;55596;53.554;9.916;2023-01-15T06:27:32;5.80;99.90
17797;DHT22;55596;53.554;9.916;2023-01-15T06:29:58;5.80;99.90
17797;DHT22;55596;53.554;9.916;2023-01-15T06:32:27;5.90;99.90
17797;DHT22;55596;53.554;9.916;2023-01-15T06:34:53;5.90;99.90
17797;DHT22;55596;53.554;9.916;2023-01-15T06:37:20;6.00;99.90
17797;DHT22;55596;53.554;9.916;2023-01-15T06:39:47;6.00;99.90
17797;DHT22;55596;53.554;9.916;2023-01-15T06:42:14;5.90;99.90
17797;DHT22;55596;53.554;9.916;2023-01-15T06:44:58;6.00;99.90
17797;DHT22;55596;53.554;9.916;2023-01-15T06:47:43;6.00;99.90
17797;DHT22;55596;53.554;9.916;2023-01-15T06:50:11;6.00;99.90
17797;DHT22;55596;53.554;9.916;2023-01-15T06:52:38;6.00;99.90
17797;DHT22;55596;53.554;9.916;2023-01-15T06:55:06;6.00;99.90
17797;DHT22;55596;53.554;9.916;2023-01-15T06:57:32;6.00;99.90
17797;DHT22;55596;53.554;9.916;2023-01-15T06:59:59;6.00;99.90
17797;DHT22;55596;53.554;9.916;2023-01-15T07:02:26;6.10;99.90
17797;DHT22;55596;53.554;9.916;2023-01-15T07:04:54;6.00;99.90
17797;DHT22;55596;53.554;9.916;2023-01-15T07:07:21;5.90;99.90
17797;DHT22;55596;53.554;9.916;2023-01-15T07:09:48;6.00;99.90
17797;DHT22;55596;53.554;9.916;2023-01-15T07:12:15;6.00;99.90
17797;DHT22;55596;53.554;9.916;2023-01-15T07:14:42;6.00;99.90
17797;DHT22;55596;53.554;9.916;2023-01-15T07:17:09;6.00;99.90
17797;DHT22;55596;53.554;9.916;2023-01-15T07:19:37;5.90;99.90
17797;DHT22;55596;53.554;9.916;2023-01-15T07:22:06;5.90;99.90
17797;DHT22;55596;53.554;9.916;2023-01-15T07:24:33;5.90;99.90
17797;DHT22;55596;53.554;9.916;2023-01-15T07:27:00;5.90;99.90
17797;DHT22;55596;53.554;9.916;2023-01-15T07:29:27;5.80;99.90
17797;DHT22;55596;53.554;9.916;2023-01-15T07:31:54;5.80;99.90
17797;DHT22;55596;53.554;9.916;2023-01-15T07:34:21;5.80;99.90
17797;DHT22;55596;53.554;9.916;2023-01-15T07:36:48;5.90;99.90
17797;DHT22;55596;53.554;9.916;2023-01-15T07:39:16;5.80;99.90
17797;DHT22;55596;53.554;9.916;2023-01-15T07:41:43;5.80;99.90
17797;DHT22;55596;53.554;9.916;2023-01-15T07:44:27;5.60;99.90
17797;DHT22;55596;53.554;9.916;2023-01-15T07:47:16;5.70;99.90
17797;DHT22;55596;53.554;9.916;2023-01-15T07:50:02;5.70;99.90
17797;DHT22;55596;53.554;9.916;2023-01-15T07:52:29;5.70;99.90
17797;DHT22;55596;53.554;9.916;2023-01-15T07:54:57;5.70;99.90
17797;DHT22;55596;53.554;9.916;2023-01-15T07:57:24;5.70;99.90
17797;DHT22;55596;53.554;9.916;2023-01-15T07:59:51;5.80;99.90
17797;DHT22;55596;53.554;9.916;2023-01-15T08:02:18;5.80;99.90
17797;DHT22;55596;53.554;9.916;2023-01-15T08:04:45;5.70;99.90
17797;DHT22;55596;53.554;9.916;2023-01-15T08:07:13;5.80;99.90
17797;DHT22;55596;53.554;9.916;2023-01-15T08:09:40;5.70;99.90
17797;DHT22;55596;53.554;9.916;2023-01-15T08:12:09;5.80;99.90
17797;DHT22;55596;53.554;9.916;2023-01-15T08:14:53;5.80;99.90
17797;DHT22;55596;53.554;9.916;2023-01-15T08:17:39;5.80;99.90
17797;DHT22;55596;53.554;9.916;2023-01-15T08:20:08;5.90;99.90
17797;DHT22;55596;53.554;9.916;2023-01-15T08:22:35;5.80;99.90
17797;DHT22;55596;53.554;9.916;2023-01-15T08:25:03;5.80;99.90
17797;DHT22;55596;53.554;9.916;2023-01-15T08:27:32;5.70;99.90
17797;DHT22;55596;53.554;9.916;2023-01-15T08:29:59;5.80;99.90
17797;DHT22;55596;53.554;9.916;2023-01-15T08:32:25;5.70;99.90
17797;DHT22;55596;53.554;9.916;2023-01-15T08:34:52;5.70;99.90
17797;DHT22;55596;53.554;9.916;2023-01-15T08:37:19;5.70;99.90
17797;DHT22;55596;53.554;9.916;2023-01-15T08:39:46;5.60;99.90
17797;DHT22;55596;53.554;9.916;2023-01-15T08:42:12;5.60;99.90
17797;DHT22;55596;53.554;9.916;2023-01-15T08:44:41;5.60;99.90
17797;DHT22;55596;53.554;9.916;2023-01-15T08:47:07;5.50;99.90
17797;DHT22;55596;53.554;9.916;2023-01-15T08:49:34;5.40;99.90
17797;DHT22;55596;53.554;9.916;2023-01-15T08:52:01;5.50;99.90
17797;DHT22;55596;53.554;9.916;2023-01-15T08:54:28;5.50;99.90
17797;DHT22;55596;53.554;9.916;2023-01-15T08:56:55;5.50;99.90
17797;DHT22;55596;53.554;9.916;2023-01-15T08:59:22;5.50;99.90
17797;DHT22;55596;53.554;9.916;2023-01-15T09:01:50;5.50;99.90
17797;DHT22;55596;53.554;9.916;2023-01-15T09:04:19;5.50;99.90
17797;DHT22;55596;53.554;9.916;2023-01-15T09:06:47;5.50;99.90
17797;DHT22;55596;53.554;9.916;2023-01-15T09:09:14;5.60;99.90
17797;DHT22;55596;53.554;9.916;2023-01-15T09:11:44;5.50;99.90
17797;DHT22;55596;53.554;9.916;2023-01-15T09:14:12;5.40;99.90
17797;DHT22;55596;53.554;9.916;2023-01-15T09:16:39;5.50;99.90
17797;DHT22;55596;53.554;9.916;2023-01-15T09:19:09;5.30;99.90
17797;DHT22;55596;53.554;9.916;2023-01-15T09:21:35;5.30;99.90
17797;DHT22;55596;53.554;9.916;2023-01-15T09:24:02;5.30;99.90
17797;DHT22;55596;53.554;9.916;2023-01-15T09:26:31;5.40;99.90
17797;DHT22;55596;53.554;9.916;2023-01-15T09:29:00;5.50;99.90
17797;DHT22;55596;53.554;9.916;2023-01-15T09:31:28;5.50;99.90
17797;DHT22;55596;53.554;9.916;2023-01-15T09:33:55;5.50;99.90
17797;DHT22;55596;53.554;9.916;2023-01-15T09:36:25;5.50;99.90
17797;DHT22;55596;53.554;9.916;2023-01-15T09:38:53;5.70;99.90
17797;DHT22;55596;53.554;9.916;2023-01-15T09:41:21;5.70;99.90
17797;DHT22;55596;53.554;9.916;2023-01-15T09:44:22;5.70;99.90
17797;DHT22;55596;53.554;9.916;2023-01-15T09:47:00;5.80;99.90
17797;DHT22;55596;53.554;9.916;2023-01-15T09:49:55;5.80;99.90
17797;DHT22;55596;53.554;9.916;2023-01-15T09:52:38;5.80;99.90
17797;DHT22;55596;53.554;9.916;2023-01-15T09:55:13;5.90;99.90
17797;DHT22;55596;53.554;9.916;2023-01-15T09:57:42;6.10;99.90
17797;DHT22;55596;53.554;9.916;2023-01-15T10:00:16;6.30;99.90
17797;DHT22;55596;53.554;9.916;2023-01-15T10:02:47;6.30;99.90
17797;DHT22;55596;53.554;9.916;2023-01-15T10:05:17;6.30;99.90
17797;DHT22;55596;53.554;9.916;2023-01-15T10:07:52;6.40;99.90
17797;DHT22;55596;53.554;9.916;2023-01-15T10:10:22;6.40;99.90
17797;DHT22;55596;53.554;9.916;2023-01-15T10:12:53;6.40;99.90
17797;DHT22;55596;53.554;9.916;2023-01-15T10:15:34;6.50;99.90
17797;DHT22;55596;53.554;9.916;2023-01-15T10:18:04;6.60;99.90
17797;DHT22;55596;53.554;9.916;2023-01-15T10:20:48;6.70;99.90
17797;DHT22;55596;53.554;9.916;2023-01-15T10:23:36;6.60;99.90
17797;DHT22;55596;53.554;9.916;2023-01-15T10:26:12;6.40;99.90
17797;DHT22;55596;53.554;9.916;2023-01-15T10:28:57;6.50;99.90
17797;DHT22;55596;53.554;9.916;2023-01-15T10:37:13;6.50;99.90
17797;DHT22;55596;53.554;9.916;2023-01-15T10:39:50;6.40;99.90
17797;DHT22;55596;53.554;9.916;2023-01-15T10:42:30;6.50;99.90
17797;DHT22;55596;53.554;9.916;2023-01-15T10:45:03;6.50;99.90
17797;DHT22;55596;53.554;9.916;2023-01-15T10:47:34;6.40;99.90
17797;DHT22;55596;53.554;9.916;2023-01-15T10:50:04;6.40;99.90
17797;DHT22;55596;53.554;9.916;2023-01-15T10:52:40;6.40;99.90
17797;DHT22;55596;53.554;9.916;2023-01-15T10:55:17;6.50;99.90
17797;DHT22;55596;53.554;9.916;2023-01-15T10:57:50;6.50;99.90
17797;DHT22;55596;53.554;9.916;2023-01-15T11:00:18;6.50;99.90
17797;DHT22;55596;53.554;9.916;2023-01-15T11:02:58;6.50;99.90
17797;DHT22;55596;53.554;9.916;2023-01-15T11:05:26;6.60;99.90
17797;DHT22;55596;53.554;9.916;2023-01-15T11:07:53;6.60;99.90
17797;DHT22;55596;53.554;9.916;2023-01-15T11:10:22;6.60;99.90
17797;DHT22;55596;53.554;9.916;2023-01-15T11:12:51;6.60;99.90
17797;DHT22;55596;53.554;9.916;2023-01-15T11:15:37;6.60;99.90
17797;DHT22;55596;53.554;9.916;2023-01-15T11:18:24;6.60;99.90
17797;DHT22;55596;53.554;9.916;2023-01-15T11:21:10;6.60;99.90
17797;DHT22;55596;53.554;9.916;2023-01-15T11:23:38;6.70;99.90
17797;DHT22;55596;53.554;9.916;2023-01-15T11:26:07;6.60;99.90
17797;DHT22;55596;53.554;9.916;2023-01-15T11:28:37;6.60;99.90
17797;DHT22;55596;53.554;9.916;2023-01-15T11:31:06;6.50;99.90
17797;DHT22;55596;53.554;9.916;2023-01-15T11:33:33;6.50;99.90
17797;DHT22;55596;53.554;9.916;2023-01-15T11:36:02;6.00;99.90
17797;DHT22;55596;53.554;9.916;2023-01-15T11:38:35;5.70;99.90
17797;DHT22;55596;53.554;9.916;2023-01-15T11:41:02;5.50;99.90
17797;DHT22;55596;53.554;9.916;2023-01-15T11:43:31;5.20;99.90
17797;DHT22;55596;53.554;9.916;2023-01-15T11:46:23;5.30;99.90
17797;DHT22;55596;53.554;9.916;2023-01-15T11:49:09;5.20;99.90
17797;DHT22;55596;53.554;9.916;2023-01-15T11:51:55;5.10;99.90
17797;DHT22;55596;53.554;9.916;2023-01-15T11:54:24;4.80;99.90
17797;DHT22;55596;53.554;9.916;2023-01-15T11:56:51;4.70;99.90
17797;DHT22;55596;53.554;9.916;2023-01-15T11:59:22;4.50;99.90
17797;DHT22;55596;53.554;9.916;2023-01-15T12:01:52;4.30;99.90
17797;DHT22;55596;53.554;9.916;2023-01-15T12:04:32;3.70;99.90
17797;DHT22;55596;53.554;9.916;2023-01-15T12:07:01;3.50;99.90
17797;DHT22;55596;53.554;9.916;2023-01-15T12:12:26;4.00;99.90
17797;DHT22;55596;53.554;9.916;2023-01-15T12:15:27;4.30;99.90
17797;DHT22;55596;53.554;9.916;2023-01-15T12:18:15;4.30;99.90
17797;DHT22;55596;53.554;9.916;2023-01-15T12:20:59;4.50;99.90
17797;DHT22;55596;53.554;9.916;2023-01-15T12:23:52;4.40;99.90
17797;DHT22;55596;53.554;9.916;2023-01-15T12:26:26;3.50;99.90
17797;DHT22;55596;53.554;9.916;2023-01-15T12:29:01;4.90;99.90
17797;DHT22;55596;53.554;9.916;2023-01-15T12:31:35;5.20;99.90
17797;DHT22;55596;53.554;9.916;2023-01-15T12:34:14;5.10;99.90
17797;DHT22;55596;53.554;9.916;2023-01-15T12:36:46;5.10;99.90
17797;DHT22;55596;53.554;9.916;2023-01-15T12:39:18;5.00;99.90
17797;DHT22;55596;53.554;9.916;2023-01-15T12:41:51;5.00;99.90
17797;DHT22;55596;53.554;9.916;2023-01-15T12:44:40;5.40;99.90
17797;DHT22;55596;53.554;9.916;2023-01-15T12:47:34;5.00;99.90
17797;DHT22;55596;53.554;9.916;2023-01-15T12:50:10;5.10;99.90
17797;DHT22;55596;53.554;9.916;2023-01-15T12:52:42;5.50;99.90
17797;DHT22;55596;53.554;9.916;2023-01-15T12:55:14;5.80;99.90
17797;DHT22;55596;53.554;9.916;2023-01-15T12:57:44;6.10;99.90
17797;DHT22;55596;53.554;9.916;2023-01-15T13:00:16;6.20;99.90
17797;DHT22;55596;53.554;9.916;2023-01-15T13:02:59;6.20;99.90
17797;DHT22;55596;53.554;9.916;2023-01-15T13:05:33;6.70;99.90
17797;DHT22;55596;53.554;9.916;2023-01-15T13:08:08;6.10;99.90
17797;DHT22;55596;53.554;9.916;2023-01-15T13:10:38;6.10;99.90
17797;DHT22;55596;53.554;9.916;2023-01-15T13:13:14;5.90;99.90
17797;DHT22;55596;53.554;9.916;2023-01-15T13:15:49;5.90;99.90
17797;DHT22;55596;53.554;9.916;2023-01-15T13:18:22;5.90;99.90
17797;DHT22;55596;53.554;9.916;2023-01-15T13:20:52;5.80;99.90
17797;DHT22;55596;53.554;9.916;2023-01-15T13:23:32;5.90;99.90
17797;DHT22;55596;53.554;9.916;2023-01-15T13:26:10;5.90;99.90
17797;DHT22;55596;53.554;9.916;2023-01-15T13:28:50;5.90;99.90
17797;DHT22;55596;53.554;9.916;2023-01-15T13:31:39;5.80;99.90
17797;DHT22;55596;53.554;9.916;2023-01-15T13:34:22;5.90;99.90
17797;DHT22;55596;53.554;9.916;2023-01-15T13:36:52;6.00;99.90
17797;DHT22;55596;53.554;9.916;2023-01-15T13:39:22;6.00;99.90
17797;DHT22;55596;53.554;9.916;2023-01-15T13:41:52;6.00;99.90
17797;DHT22;55596;53.554;9.916;2023-01-15T13:44:43;6.00;99.90
17797;DHT22;55596;53.554;9.916;2023-01-15T13:47:12;6.00;99.90
17797;DHT22;55596;53.554;9.916;2023-01-15T13:49:48;6.20;99.90
17797;DHT22;55596;53.554;9.916;2023-01-15T13:52:21;6.20;99.90
17797;DHT22;55596;53.554;9.916;2023-01-15T13:54:50;6.20;99.90
17797;DHT22;55596;53.554;9.916;2023-01-15T13:57:23;6.40;99.90
17797;DHT22;55596;53.554;9.916;2023-01-15T13:59:53;6.50;99.90
17797;DHT22;55596;53.554;9.916;2023-01-15T14:02:24;6.60;99.90
17797;DHT22;55596;53.554;9.916;2023-01-15T14:04:53;7.20;99.90
17797;DHT22;55596;53.554;9.916;2023-01-15T14:07:29;6.70;99.90
17797;DHT22;55596;53.554;9.916;2023-01-15T14:10:07;6.70;99.90
17797;DHT22;55596;53.554;9.916;2023-01-15T14:12:41;6.50;99.90
17797;DHT22;55596;53.554;9.916;2023-01-15T14:15:29;6.60;99.90
17797;DHT22;55596;53.554;9.916;2023-01-15T14:21:03;6.50;99.90
17797;DHT22;55596;53.554;9.916;2023-01-15T14:26:42;6.40;99.90
17797;DHT22;55596;53.554;9.916;2023-01-15T14:29:31;6.60;99.90
17797;DHT22;55596;53.554;9.916;2023-01-15T14:32:03;6.50;99.90
17797;DHT22;55596;53.554;9.916;2023-01-15T14:34:33;6.50;99.90
17797;DHT22;55596;53.554;9.916;2023-01-15T14:37:04;6.50;99.90
17797;DHT22;55596;53.554;9.916;2023-01-15T14:39:37;6.50;99.90
17797;DHT22;55596;53.554;9.916;2023-01-15T14:42:08;6.50;99.90
17797;DHT22;55596;53.554;9.916;2023-01-15T14:45:03;6.60;99.90
17797;DHT22;55596;53.554;9.916;2023-01-15T14:47:35;6.60;99.90
17797;DHT22;55596;53.554;9.916;2023-01-15T14:50:23;6.60;99.90
17797;DHT22;55596;53.554;9.916;2023-01-15T14:52:53;6.60;99.90
17797;DHT22;55596;53.554;9.916;2023-01-15T14:55:21;6.60;99.90
17797;DHT22;55596;53.554;9.916;2023-01-15T14:57:55;6.50;99.90
17797;DHT22;55596;53.554;9.916;2023-01-15T15:00:23;6.50;99.90
17797;DHT22;55596;53.554;9.916;2023-01-15T15:02:52;6.50;99.90
17797;DHT22;55596;53.554;9.916;2023-01-15T15:05:21;6.40;99.90
17797;DHT22;55596;53.554;9.916;2023-01-15T15:07:51;6.40;99.90
17797;DHT22;55596;53.554;9.916;2023-01-15T15:10:23;7.70;99.90
17797;DHT22;55596;53.554;9.916;2023-01-15T15:12:57;6.20;99.90
17797;DHT22;55596;53.554;9.916;2023-01-15T15:15:36;6.10;99.90
17797;DHT22;55596;53.554;9.916;2023-01-15T15:18:12;6.00;99.90
17797;DHT22;55596;53.554;9.916;2023-01-15T15:20:49;5.90;99.90
17797;DHT22;55596;53.554;9.916;2023-01-15T15:23:30;5.70;99.90
17797;DHT22;55596;53.554;9.916;2023-01-15T15:26:05;5.60;99.90
17797;DHT22;55596;53.554;9.916;2023-01-15T15:28:32;5.40;99.90
17797;DHT22;55596;53.554;9.916;2023-01-15T15:30:59;5.30;99.90
17797;DHT22;55596;53.554;9.916;2023-01-15T15:33:34;5.20;99.90
17797;DHT22;55596;53.554;9.916;2023-01-15T15:36:03;5.10;99.90
17797;DHT22;55596;53.554;9.916;2023-01-15T15:38:52;5.00;99.90
17797;DHT22;55596;53.554;9.916;2023-01-15T15:41:25;4.80;99.90
17797;DHT22;55596;53.554;9.916;2023-01-15T15:44:10;4.60;99.90
17797;DHT22;55596;53.554;9.916;2023-01-15T15:47:14;4.50;99.90
17797;DHT22;55596;53.554;9.916;2023-01-15T15:50:17;4.40;99.90
17797;DHT22;55596;53.554;9.916;2023-01-15T15:52:47;4.40;99.90
17797;DHT22;55596;53.554;9.916;2023-01-15T15:55:22;4.40;99.90
17797;DHT22;55596;53.554;9.916;2023-01-15T15:57:54;4.30;99.90
17797;DHT22;55596;53.554;9.916;2023-01-15T16:00:29;4.30;99.90
17797;DHT22;55596;53.554;9.916;2023-01-15T16:03:01;4.30;99.90
17797;DHT22;55596;53.554;9.916;2023-01-15T16:05:29;4.30;99.90
17797;DHT22;55596;53.554;9.916;2023-01-15T16:08:07;4.30;99.90
17797;DHT22;55596;53.554;9.916;2023-01-15T16:10:36;4.50;99.90
17797;DHT22;55596;53.554;9.916;2023-01-15T16:13:18;4.30;99.90
17797;DHT22;55596;53.554;9.916;2023-01-15T16:15:48;4.40;99.90
17797;DHT22;55596;53.554;9.916;2023-01-15T16:18:21;4.30;99.90
17797;DHT22;55596;53.554;9.916;2023-01-15T16:20:52;4.30;99.90
17797;DHT22;55596;53.554;9.916;2023-01-15T16:23:23;4.30;99.90
17797;DHT22;55596;53.554;9.916;2023-01-15T16:26:02;4.30;99.90
17797;DHT22;55596;53.554;9.916;2023-01-15T16:28:35;4.30;99.90
17797;DHT22;55596;53.554;9.916;2023-01-15T16:31:05;4.30;99.90
17797;DHT22;55596;53.554;9.916;2023-01-15T16:33:34;4.20;99.90
17797;DHT22;55596;53.554;9.916;2023-01-15T16:36:02;4.20;99.90
17797;DHT22;55596;53.554;9.916;2023-01-15T16:38:31;4.20;99.90
17797;DHT22;55596;53.554;9.916;2023-01-15T16:41:00;4.10;99.90